Time;durP1;ratioP1;P1;durP2;ratioP2;P2;SDS_P1;SDS_P2;PMS_P1;PMS_P2;Temp;Humidity;BMP_temperature;BMP_pressure;BME280_temperature;BME280_humidity;BME280_pressure;Samples;Min_cycle;Max_cycle;Signal;HPM_P1;HPM_P2
2022/02/15 00:00:53;;;;;;;8.35;3.03;;;;;;;10.80;54.09;100564.38;4971156;28;123102;-67
2022/02/15 00:03:20;;;;;;;8.52;3.20;;;;;;;10.82;54.07;100567.81;4972109;28;114720;-67
2022/02/15 00:05:47;;;;;;;6.85;3.13;;;;;;;10.84;54.24;100571.25;4970143;28;114345;-67
2022/02/15 00:08:14;;;;;;;5.15;3.15;;;;;;;10.86;54.26;100577.31;4969310;28;124537;-67
2022/02/15 00:10:42;;;;;;;7.95;3.30;;;;;;;10.86;54.24;100572.00;4970438;28;123920;-64
2022/02/15 00:13:10;;;;;;;6.40;3.20;;;;;;;10.87;54.32;100571.94;4971637;28;115043;-65
2022/02/15 00:15:37;;;;;;;9.35;3.80;;;;;;;10.88;54.06;100572.78;4970014;28;114006;-64
2022/02/15 00:18:04;;;;;;;10.52;3.47;;;;;;;10.87;54.25;100576.41;4987431;28;123059;-65
2022/02/15 00:20:31;;;;;;;9.05;3.35;;;;;;;10.89;54.32;100574.53;4970585;28;124268;-64
2022/02/15 00:22:58;;;;;;;6.05;3.20;;;;;;;10.88;54.47;100575.44;4971076;28;114600;-64
2022/02/15 00:25:25;;;;;;;9.05;3.65;;;;;;;10.87;54.38;100579.03;4970331;28;114390;-65
2022/02/15 00:27:53;;;;;;;5.82;3.65;;;;;;;10.86;54.23;100574.66;4971240;28;124110;-64
2022/02/15 00:30:21;;;;;;;7.25;3.63;;;;;;;10.84;53.97;100580.03;4968718;28;124886;-64
2022/02/15 00:32:51;;;;;;;10.05;3.60;;;;;;;10.82;54.03;100594.31;4987042;28;114339;-64
2022/02/15 00:35:18;;;;;;;5.75;3.67;;;;;;;10.79;54.15;100594.44;4970621;28;114990;-64
2022/02/15 00:37:46;;;;;;;7.32;3.20;;;;;;;10.74;53.84;100596.47;4969408;28;123983;-64
2022/02/15 00:40:13;;;;;;;7.15;2.88;;;;;;;10.70;54.00;100599.28;4970549;28;123981;-64
2022/02/15 00:42:41;;;;;;;8.40;3.15;;;;;;;10.66;53.96;100600.38;4970606;28;114399;-64
2022/02/15 00:45:09;;;;;;;6.18;3.17;;;;;;;10.64;54.30;100596.06;4987583;28;112980;-64
2022/02/15 00:47:36;;;;;;;7.45;3.38;;;;;;;10.61;54.10;100607.69;4969257;28;123902;-64
2022/02/15 00:50:04;;;;;;;5.25;3.00;;;;;;;10.57;54.24;100616.72;4987046;28;123079;-64
2022/02/15 00:52:32;;;;;;;4.82;3.05;;;;;;;10.58;54.02;100615.75;4970224;28;114820;-65
2022/02/15 00:55:00;;;;;;;6.05;2.78;;;;;;;10.54;54.06;100611.53;4971223;28;114412;-64
2022/02/15 00:57:27;;;;;;;8.02;2.70;;;;;;;10.52;54.12;100611.63;4968593;28;124120;-64
2022/02/15 00:59:54;;;;;;;5.68;2.65;;;;;;;10.50;54.22;100620.56;4986290;28;123167;-64
2022/02/15 01:02:22;;;;;;;5.07;2.80;;;;;;;10.48;54.04;100627.75;4986994;28;113523;-65
2022/02/15 01:04:49;;;;;;;4.88;2.60;;;;;;;10.46;54.51;100626.97;4987296;28;113545;-65
2022/02/15 01:07:16;;;;;;;5.93;2.47;;;;;;;10.45;54.53;100627.88;4970207;28;124083;-64
2022/02/15 01:09:43;;;;;;;7.85;2.80;;;;;;;10.44;54.44;100631.47;4986217;28;123276;-64
2022/02/15 01:12:10;;;;;;;6.70;2.75;;;;;;;10.42;54.14;100628.03;4969380;28;114978;-64
2022/02/15 01:14:38;;;;;;;7.63;2.50;;;;;;;10.42;54.48;100630.69;4987807;28;113835;-64
2022/02/15 01:17:06;;;;;;;4.65;2.40;;;;;;;10.40;54.27;100629.91;4969528;28;124426;-64
2022/02/15 01:19:34;;;;;;;5.40;2.50;;;;;;;10.42;54.76;100639.47;4969717;28;123936;-64
2022/02/15 01:22:02;;;;;;;7.78;3.05;;;;;;;10.44;54.47;100642.06;4985565;28;114933;-64
2022/02/15 01:24:29;;;;;;;6.90;2.80;;;;;;;10.43;54.31;100640.34;4986092;28;113981;-64
2022/02/15 01:26:56;;;;;;;5.30;2.60;;;;;;;10.44;54.54;100647.34;4971146;28;124087;-64
2022/02/15 01:29:24;;;;;;;4.85;2.85;;;;;;;10.44;54.71;100642.06;4986342;28;123614;-64
2022/02/15 01:31:52;;;;;;;7.22;2.63;;;;;;;10.44;54.47;100647.34;4986166;28;113734;-64
2022/02/15 01:34:20;;;;;;;4.20;2.75;;;;;;;10.43;54.73;100645.63;4986733;28;113014;-64
2022/02/15 01:36:48;;;;;;;4.95;2.80;;;;;;;10.43;54.83;100642.97;4986590;28;123170;-64
2022/02/15 01:39:22;;;;;;;6.95;2.97;;;;;;;10.41;54.51;100652.78;4986504;28;126544;-64
2022/02/15 01:41:49;;;;;;;8.95;3.13;;;;;;;10.41;54.64;100656.28;4991992;28;113696;-65
2022/02/15 01:44:17;;;;;;;8.23;3.40;;;;;;;10.41;54.53;100658.94;4989703;28;113882;-64
2022/02/15 01:46:48;;;;;;;6.97;3.33;;;;;;;10.41;54.69;100666.03;4986027;28;123295;-64
2022/02/15 01:49:16;;;;;;;9.05;3.45;;;;;;;10.42;54.92;100659.81;4986216;28;122825;-64
2022/02/15 01:51:43;;;;;;;6.10;3.20;;;;;;;10.43;54.99;100666.81;4969310;28;113951;-67
2022/02/15 01:54:11;;;;;;;7.10;3.17;;;;;;;10.43;54.80;100666.81;4969641;28;113510;-64
2022/02/15 01:56:39;;;;;;;7.68;3.58;;;;;;;10.43;54.88;100672.09;4969656;28;123188;-65
2022/02/15 01:59:08;;;;;;;8.15;3.55;;;;;;;10.44;54.77;100663.25;4969481;28;123601;-64
2022/02/15 02:01:35;;;;;;;5.95;3.20;;;;;;;10.44;54.98;100676.47;4969289;28;113532;-64
2022/02/15 02:05:47;;;;;;;8.15;3.20;;;;;;;10.44;55.00;100672.03;4970009;28;113352;-64
2022/02/15 02:06:56;;;;;;;6.53;3.75;;;;;;;10.43;54.84;100678.25;4974031;28;123443;-63
2022/02/15 02:09:26;;;;;;;6.13;3.50;;;;;;;10.42;55.05;100681.00;4987741;28;123628;-63
2022/02/15 02:11:54;;;;;;;8.93;3.80;;;;;;;10.42;55.13;100681.84;5004425;28;114603;-63
2022/02/15 02:14:29;;;;;;;6.13;3.28;;;;;;;10.43;55.00;100688.00;4989173;28;114078;-63
2022/02/15 02:16:56;;;;;;;6.93;3.70;;;;;;;10.44;55.13;100692.38;4989093;28;124291;-63
2022/02/15 02:19:27;;;;;;;7.63;3.90;;;;;;;10.43;54.93;100693.28;4988575;28;123038;-63
2022/02/15 02:21:59;;;;;;;11.70;4.07;;;;;;;10.43;54.89;100698.59;4988169;28;113592;-63
2022/02/15 02:24:26;;;;;;;9.48;4.35;;;;;;;10.42;54.95;100696.88;4990628;28;114389;-63
2022/02/15 02:26:53;;;;;;;7.80;3.78;;;;;;;10.41;55.43;100692.50;4988895;28;123518;-63
2022/02/15 02:29:21;;;;;;;7.90;3.90;;;;;;;10.43;55.33;100693.28;4989760;28;123869;-64
2022/02/15 02:31:49;;;;;;;8.93;3.63;;;;;;;10.44;55.13;100695.00;4988782;28;113361;-63
2022/02/15 02:34:20;;;;;;;11.65;3.78;;;;;;;10.43;55.19;100702.06;4988803;28;114142;-64
2022/02/15 02:36:49;;;;;;;6.57;3.47;;;;;;;10.42;55.11;100696.88;4990109;28;124339;-64
2022/02/15 02:39:23;;;;;;;6.80;3.45;;;;;;;10.41;55.13;100705.75;4992277;28;123299;-64
2022/02/15 02:41:52;;;;;;;6.38;3.25;;;;;;;10.40;55.06;100701.38;4991820;28;113344;-64
2022/02/15 02:44:19;;;;;;;7.50;3.58;;;;;;;10.40;55.26;100698.75;5008918;28;113296;-65
2022/02/15 02:46:49;;;;;;;8.77;2.70;;;;;;;10.37;55.07;100706.81;4991698;28;123810;-64
2022/02/15 02:49:17;;;;;;;6.55;2.72;;;;;;;10.35;55.43;100712.19;4992070;28;124071;-64
2022/02/15 02:51:44;;;;;;;6.70;3.00;;;;;;;10.33;55.47;100709.59;4991273;28;113032;-64
2022/02/15 02:54:12;;;;;;;5.93;3.15;;;;;;;10.33;55.40;100720.19;4992648;28;113392;-64
2022/02/15 02:56:50;;;;;;;6.47;2.97;;;;;;;10.32;55.67;100713.19;4991743;28;123100;-64
2022/02/15 02:59:18;;;;;;;6.93;2.88;;;;;;;10.31;55.63;100710.59;4990435;28;124611;-64
2022/02/15 03:01:46;;;;;;;6.13;3.28;;;;;;;10.29;55.64;100702.69;4999122;28;114409;-64
2022/02/15 03:04:14;;;;;;;7.50;2.90;;;;;;;10.28;55.65;100713.34;5008737;28;114083;-64
2022/02/15 03:06:41;;;;;;;5.80;2.83;;;;;;;10.27;55.33;100704.56;4992348;28;124531;-64
2022/02/15 03:09:09;;;;;;;9.75;3.40;;;;;;;10.26;55.59;100713.41;4991491;28;122921;-64
2022/02/15 03:11:36;;;;;;;7.32;3.17;;;;;;;10.25;55.73;100717.00;4991329;28;113963;-64
2022/02/15 03:14:04;;;;;;;7.30;3.45;;;;;;;10.25;55.75;100722.31;4993555;28;114338;-64
2022/02/15 03:16:45;;;;;;;7.60;3.53;;;;;;;10.25;55.62;100727.59;4992060;28;123278;-64
2022/02/15 03:19:13;;;;;;;6.60;3.55;;;;;;;10.24;55.80;100725.88;4991353;28;123085;-63
2022/02/15 03:21:40;;;;;;;7.10;3.65;;;;;;;10.24;55.54;100725.88;4991124;28;113835;-63
2022/02/15 03:24:08;;;;;;;9.23;3.95;;;;;;;10.24;55.52;100736.44;4991617;28;113074;-64
2022/02/15 03:26:36;;;;;;;8.52;4.50;;;;;;;10.24;55.79;100731.16;4991302;28;123202;-64
2022/02/15 03:29:04;;;;;;;8.05;4.20;;;;;;;10.24;55.80;100736.44;4991447;28;122743;-64
2022/02/15 03:31:31;;;;;;;9.90;4.32;;;;;;;10.23;55.53;100745.34;4991660;28;113471;-64
2022/02/15 03:33:59;;;;;;;9.75;4.85;;;;;;;10.22;56.06;100737.47;4991517;28;113206;-64
2022/02/15 03:36:30;;;;;;;9.18;4.65;;;;;;;10.20;55.63;100742.81;4991400;28;123256;-64
2022/02/15 03:39:05;;;;;;;10.35;4.70;;;;;;;10.20;55.71;100740.16;4991092;28;122891;-64
2022/02/15 03:44:23;;;;;;;10.75;5.13;;;;;;;10.20;55.91;100750.75;4991567;28;115213;-64
2022/02/15 03:46:54;;;;;;;10.10;5.40;;;;;;;10.19;55.86;100757.00;5007072;28;123612;-64
2022/02/15 03:49:26;;;;;;;10.85;5.18;;;;;;;10.19;55.91;100757.00;4990620;28;123184;-63
2022/02/15 03:51:55;;;;;;;10.20;5.22;;;;;;;10.19;56.10;100764.94;4990514;28;114442;-63
2022/02/15 03:54:23;;;;;;;11.73;5.82;;;;;;;10.19;56.18;100758.75;4988708;28;115636;-64
2022/02/15 03:56:52;;;;;;;13.23;6.20;;;;;;;10.19;56.08;100770.22;4991155;28;123362;-64
2022/02/15 03:59:22;;;;;;;10.88;5.47;;;;;;;10.19;56.08;100764.94;5007540;28;123079;-64
2022/02/15 04:01:50;;;;;;;12.07;6.15;;;;;;;10.18;56.24;100768.50;4990099;28;113683;-64
2022/02/15 04:04:18;;;;;;;10.80;5.45;;;;;;;10.18;56.33;100776.44;4991423;28;113376;-63
2022/02/15 04:06:47;;;;;;;11.38;5.82;;;;;;;10.17;56.23;100782.69;4990954;28;123206;-65
2022/02/15 04:09:15;;;;;;;11.85;5.82;;;;;;;10.15;56.12;100784.50;4990882;28;122920;-64
2022/02/15 04:11:42;;;;;;;11.73;5.90;;;;;;;10.15;56.39;100784.50;4991850;28;114645;-64
2022/02/15 04:14:12;;;;;;;10.68;5.57;;;;;;;10.16;56.61;100791.53;4991195;28;113063;-64
2022/02/15 04:16:42;;;;;;;12.73;6.47;;;;;;;10.17;56.30;100793.25;4990286;28;123194;-64
2022/02/15 04:19:10;;;;;;;13.13;6.35;;;;;;;10.17;56.69;100792.38;4990230;28;123932;-64
2022/02/15 04:21:37;;;;;;;12.45;6.10;;;;;;;10.17;56.48;100798.56;4990567;28;113085;-64
2022/02/15 04:24:05;;;;;;;10.70;5.63;;;;;;;10.17;56.83;100806.50;4991552;28;113608;-64
2022/02/15 04:26:32;;;;;;;13.15;6.10;;;;;;;10.17;56.61;100806.50;4990526;28;123235;-64
2022/02/15 04:29:00;;;;;;;10.40;5.57;;;;;;;10.19;56.56;100824.94;4988986;28;124382;-64
2022/02/15 04:31:36;;;;;;;14.57;6.18;;;;;;;10.17;56.39;100817.06;4990010;28;116823;-64
2022/02/15 04:34:05;;;;;;;11.35;5.85;;;;;;;10.16;56.73;100818.00;4991032;28;113201;-64
2022/02/15 04:36:34;;;;;;;12.55;6.80;;;;;;;10.16;56.76;100818.00;4990462;28;123102;-64
2022/02/15 04:39:02;;;;;;;16.40;6.85;;;;;;;10.18;56.83;100816.13;4990796;28;123262;-65
2022/02/15 04:41:32;;;;;;;12.10;6.20;;;;;;;10.18;56.67;100821.44;4989725;28;114270;-64
2022/02/15 04:44:07;;;;;;;12.73;6.90;;;;;;;10.17;56.53;100819.72;4991200;28;113842;-64
2022/02/15 04:46:34;;;;;;;15.73;7.15;;;;;;;10.18;56.62;100821.44;4990746;28;123445;-64
2022/02/15 04:49:03;;;;;;;13.32;6.55;;;;;;;10.17;56.79;100830.31;4990101;28;123585;-64
2022/02/15 04:51:31;;;;;;;13.90;7.18;;;;;;;10.15;56.66;100832.13;4989743;28;113406;-64
2022/02/15 04:53:59;;;;;;;11.75;6.97;;;;;;;10.14;56.70;100841.03;4992037;28;113972;-63
2022/02/15 04:56:26;;;;;;;14.43;7.60;;;;;;;10.13;56.83;100847.22;4990264;28;123383;-64
2022/02/15 04:58:55;;;;;;;13.80;7.82;;;;;;;10.12;56.70;100853.47;4989585;28;123826;-64
2022/02/15 05:01:23;;;;;;;13.25;7.25;;;;;;;10.12;56.75;100842.88;4989945;28;113346;-64
2022/02/15 05:06:55;;;;;;;13.88;8.10;;;;;;;10.12;56.79;100845.53;4989966;28;124561;-64
2022/02/15 05:09:22;;;;;;;13.02;7.30;;;;;;;10.12;56.81;100858.75;4990172;28;123482;-63
2022/02/15 05:11:49;;;;;;;17.08;8.55;;;;;;;10.12;57.14;100850.81;4989324;28;113258;-64
2022/02/15 05:14:17;;;;;;;16.90;8.02;;;;;;;10.12;56.61;100850.81;4990110;28;113304;-64
2022/02/15 05:16:45;;;;;;;15.02;8.18;;;;;;;10.11;57.06;100862.31;4989934;28;123768;-64
2022/02/15 05:19:16;;;;;;;14.32;7.85;;;;;;;10.11;56.98;100857.03;4989649;28;124656;-64
2022/02/15 05:21:50;;;;;;;14.63;8.07;;;;;;;10.11;56.81;100864.97;4989346;28;113859;-64
2022/02/15 05:24:18;;;;;;;15.60;8.35;;;;;;;10.10;56.90;100857.97;5006802;28;113215;-64
2022/02/15 05:26:53;;;;;;;15.20;8.23;;;;;;;10.11;57.14;100867.59;4974889;28;123219;-63
2022/02/15 05:29:31;;;;;;;14.25;7.63;;;;;;;10.10;57.17;100869.41;4989791;28;123006;-64
2022/02/15 05:32:15;;;;;;;17.17;7.40;;;;;;;10.11;56.95;100857.03;4989412;28;114467;-63
2022/02/15 05:34:43;;;;;;;15.98;8.10;;;;;;;10.12;56.92;100864.03;4990545;28;113879;-65
2022/02/15 05:37:13;;;;;;;13.80;7.70;;;;;;;10.12;57.06;100871.97;4989501;28;123394;-64
2022/02/15 05:39:44;;;;;;;18.73;8.80;;;;;;;10.12;57.20;100869.34;5005788;28;123081;-64
2022/02/15 05:42:15;;;;;;;13.43;7.68;;;;;;;10.13;57.00;100865.75;4988988;28;114313;-64
2022/02/15 05:44:42;;;;;;;13.85;7.38;;;;;;;10.12;57.28;100864.03;4990257;28;112428;-64
2022/02/15 05:47:10;;;;;;;16.08;8.32;;;;;;;10.12;57.13;100861.41;4990833;28;123860;-64
2022/02/15 05:52:36;;;;;;;15.20;8.25;;;;;;;10.09;57.07;100869.47;4989173;28;113452;-64
2022/02/15 05:55:10;;;;;;;13.80;7.53;;;;;;;10.07;57.13;100873.97;4989342;28;113044;-64
2022/02/15 05:57:38;;;;;;;13.32;7.60;;;;;;;10.04;56.96;100872.31;4988748;28;123219;-64
2022/02/15 06:00:14;;;;;;;16.27;8.23;;;;;;;10.03;56.90;100875.03;4989017;28;123298;-64
2022/02/15 06:02:43;;;;;;;14.10;7.35;;;;;;;10.02;57.09;100868.88;4990944;28;114081;-64
2022/02/15 06:05:15;;;;;;;14.68;7.00;;;;;;;10.01;57.42;100871.59;4989850;28;113531;-64
2022/02/15 06:07:48;;;;;;;14.07;7.72;;;;;;;10.02;57.46;100876.81;4988935;28;126406;-64
2022/02/15 06:10:21;;;;;;;13.93;7.55;;;;;;;10.02;57.28;100881.22;4987681;28;122998;-64
2022/02/15 06:12:54;;;;;;;13.25;7.45;;;;;;;10.01;57.31;100876.88;5005852;28;113431;-64
2022/02/15 06:15:26;;;;;;;13.93;7.55;;;;;;;10.01;57.37;100882.16;4989802;28;113131;-64
2022/02/15 06:18:02;;;;;;;15.35;7.68;;;;;;;10.01;57.37;100879.53;4989693;28;123223;-64
2022/02/15 06:20:30;;;;;;;16.75;7.95;;;;;;;10.02;57.22;100883.88;4987823;28;123254;-64
2022/02/15 06:23:00;;;;;;;15.15;7.68;;;;;;;10.03;57.36;100890.91;4988238;28;114344;-64
2022/02/15 06:25:27;;;;;;;14.32;8.30;;;;;;;10.03;57.53;100885.59;4989311;28;114004;-64
2022/02/15 06:27:56;;;;;;;14.48;7.95;;;;;;;10.05;57.33;100894.34;4989311;28;123664;-64
2022/02/15 06:30:42;;;;;;;15.05;8.32;;;;;;;10.06;57.78;100891.63;4988140;28;123335;-64
2022/02/15 06:33:18;;;;;;;16.08;7.97;;;;;;;10.07;57.67;100892.47;4988390;28;116270;-64
2022/02/15 06:35:47;;;;;;;15.82;8.07;;;;;;;10.09;57.43;100895.91;4989262;28;113255;-64
2022/02/15 06:38:20;;;;;;;14.55;7.43;;;;;;;10.08;57.69;100904.81;4987546;28;124196;-64
2022/02/15 06:41:09;;;;;;;14.88;7.97;;;;;;;10.09;57.58;100911.81;4988298;28;123467;-64
2022/02/15 06:43:52;;;;;;;13.77;7.70;;;;;;;10.08;57.40;100915.38;4988562;28;113414;-64
2022/02/15 06:46:23;;;;;;;15.82;7.70;;;;;;;10.08;57.69;100920.69;4988528;28;113075;-64
2022/02/15 06:48:51;;;;;;;16.25;8.02;;;;;;;10.06;57.79;100922.53;4987182;28;123226;-64
2022/02/15 06:51:20;;;;;;;16.17;8.50;;;;;;;10.06;57.79;100927.81;4987861;28;123019;-64
2022/02/15 06:54:01;;;;;;;14.15;7.15;;;;;;;10.06;57.81;100927.81;4988124;28;113380;-64
2022/02/15 06:56:41;;;;;;;16.40;7.68;;;;;;;10.06;57.78;100928.69;4988254;28;113325;-64
2022/02/15 06:59:10;;;;;;;17.15;8.02;;;;;;;10.06;57.89;100928.69;4987354;28;123212;-64
2022/02/15 07:01:40;;;;;;;19.30;7.93;;;;;;;10.07;57.86;100929.53;4987743;28;122965;-63
2022/02/15 07:04:12;;;;;;;17.17;7.97;;;;;;;10.07;58.03;100926.88;4989424;28;113983;-63
2022/02/15 07:06:40;;;;;;;16.90;7.85;;;;;;;10.09;58.08;100933.81;4989642;28;113972;-64
2022/02/15 07:09:08;;;;;;;15.57;8.10;;;;;;;10.10;57.88;100937.34;4988577;28;123338;-64
2022/02/15 07:11:54;;;;;;;17.00;8.43;;;;;;;10.10;57.88;100934.72;4989813;28;123730;-64
2022/02/15 07:14:22;;;;;;;15.02;8.18;;;;;;;10.11;57.54;100947.00;4988567;28;114592;-64
2022/02/15 07:16:52;;;;;;;14.57;7.63;;;;;;;10.12;58.10;100946.09;4988987;28;114431;-64
2022/02/15 07:19:19;;;;;;;18.58;8.13;;;;;;;10.13;57.95;100947.78;4988297;28;123059;-64
2022/02/15 07:22:05;;;;;;;19.35;8.48;;;;;;;10.14;57.91;100953.03;4990648;28;125030;-64
2022/02/15 07:25:04;;;;;;;16.80;8.50;;;;;;;10.13;58.09;100945.16;4989551;28;114408;-64
2022/02/15 07:27:38;;;;;;;19.13;8.73;;;;;;;10.15;57.92;100953.88;5008923;28;113230;-64
2022/02/15 07:30:09;;;;;;;20.00;9.30;;;;;;;10.17;57.93;100959.13;4992187;28;123193;-64
2022/02/15 07:32:54;;;;;;;16.65;8.45;;;;;;;10.18;57.92;100953.75;4992217;28;123196;-64
2022/02/15 07:35:22;;;;;;;17.80;9.30;;;;;;;10.20;58.26;100951.91;4992101;28;113618;-64
2022/02/15 07:37:50;;;;;;;21.30;9.23;;;;;;;10.22;58.34;100965.94;4990885;28;114411;-64
2022/02/15 07:40:23;;;;;;;17.65;8.93;;;;;;;10.25;57.97;100978.19;4990449;28;123752;-64
2022/02/15 07:42:52;;;;;;;18.48;9.60;;;;;;;10.28;58.10;100984.22;4991800;28;124752;-64
2022/02/15 07:45:21;;;;;;;23.15;10.25;;;;;;;10.28;58.04;100976.28;4992079;28;113861;-63
2022/02/15 07:47:51;;;;;;;20.65;9.77;;;;;;;10.29;58.38;100991.22;4992907;28;114214;-64
2022/02/15 07:50:21;;;;;;;20.77;9.48;;;;;;;10.30;58.47;100990.34;4989657;28;124893;-64
2022/02/15 07:52:54;;;;;;;20.90;9.93;;;;;;;10.32;58.48;100987.63;4991239;28;124508;-64
2022/02/15 07:55:22;;;;;;;18.75;9.32;;;;;;;10.33;58.26;100986.72;4990795;28;114425;-64
2022/02/15 07:57:50;;;;;;;17.80;9.10;;;;;;;10.33;58.42;100984.91;4991063;28;113991;-64
2022/02/15 08:00:21;;;;;;;20.35;9.50;;;;;;;10.35;58.07;100989.28;4989660;28;124228;-64
2022/02/15 08:02:51;;;;;;;18.63;9.27;;;;;;;10.37;58.29;100995.38;4991453;28;124104;-64
2022/02/15 08:05:21;;;;;;;20.38;9.25;;;;;;;10.42;58.29;100998.72;4990543;28;115252;-64
2022/02/15 08:07:56;;;;;;;18.35;9.07;;;;;;;10.45;58.73;101001.22;4991901;28;114858;-64
2022/02/15 08:10:25;;;;;;;19.02;9.50;;;;;;;10.49;58.55;101008.09;4992016;28;124434;-64
2022/02/15 08:12:57;;;;;;;16.30;9.32;;;;;;;10.52;58.77;101014.13;4992082;28;123366;-63
2022/02/15 08:15:30;;;;;;;16.30;8.02;;;;;;;10.56;58.53;101011.38;4990835;28;114384;-64
2022/02/15 08:18:00;;;;;;;13.82;7.57;;;;;;;10.57;58.18;101019.25;4990634;28;114056;-64
2022/02/15 08:20:30;;;;;;;13.18;7.60;;;;;;;10.58;58.60;101020.94;4991919;28;124066;-64
2022/02/15 08:22:57;;;;;;;14.27;7.40;;;;;;;10.62;58.57;101027.84;4991746;28;124026;-64
2022/02/15 08:25:25;;;;;;;16.45;7.25;;;;;;;10.64;58.46;101020.72;4990329;28;114110;-64
2022/02/15 08:27:52;;;;;;;13.85;6.60;;;;;;;10.65;58.29;101017.13;4990287;28;113956;-65
2022/02/15 08:30:20;;;;;;;16.67;6.95;;;;;;;10.66;58.41;101029.47;4989754;28;124013;-64
2022/02/15 08:32:47;;;;;;;11.95;6.75;;;;;;;10.67;58.14;101033.81;4990307;28;124426;-64
2022/02/15 08:35:17;;;;;;;12.27;7.10;;;;;;;10.68;58.24;101030.25;4991454;28;113812;-64
2022/02/15 08:37:44;;;;;;;12.77;7.05;;;;;;;10.72;58.34;101033.63;4989962;28;114070;-64
2022/02/15 08:40:12;;;;;;;16.58;6.82;;;;;;;10.75;58.39;101027.34;4991368;28;123835;-64
2022/02/15 08:42:41;;;;;;;15.52;7.10;;;;;;;10.77;58.33;101030.78;4990354;28;125137;-64
2022/02/15 08:45:10;;;;;;;14.50;6.80;;;;;;;10.78;58.23;101035.16;4990710;28;114303;-64
2022/02/15 08:47:38;;;;;;;13.93;6.78;;;;;;;10.78;58.34;101040.47;4990252;28;114006;-64
2022/02/15 08:50:08;;;;;;;15.98;7.72;;;;;;;10.81;58.04;101037.66;4988796;28;123962;-62
2022/02/15 08:52:36;;;;;;;14.38;7.70;;;;;;;10.82;57.97;101044.69;4991525;28;124113;-63
2022/02/15 08:55:05;;;;;;;14.35;6.95;;;;;;;10.83;58.13;101043.75;4988972;28;116443;-63
2022/02/15 08:57:33;;;;;;;14.85;7.28;;;;;;;10.84;58.42;101042.84;4990381;28;115090;-63
2022/02/15 09:00:01;;;;;;;13.65;6.97;;;;;;;10.85;58.23;101049.84;4990340;28;124282;-63
2022/02/15 09:02:28;;;;;;;13.85;7.22;;;;;;;10.86;58.04;101046.28;4989483;28;124849;-63
2022/02/15 09:04:55;;;;;;;14.00;7.05;;;;;;;10.88;58.03;101049.72;4989492;28;114051;-63
2022/02/15 09:07:22;;;;;;;16.00;8.45;;;;;;;10.91;58.07;101049.59;4990528;28;113110;-63
2022/02/15 09:09:49;;;;;;;14.45;7.03;;;;;;;10.92;57.96;101056.59;4988383;28;124741;-63
2022/02/15 09:12:16;;;;;;;15.00;6.78;;;;;;;10.94;58.14;101060.03;4990381;28;124136;-63
2022/02/15 09:14:47;;;;;;;14.70;6.38;;;;;;;10.98;58.25;101055.47;4991220;28;115065;-63
2022/02/15 09:17:14;;;;;;;13.98;6.38;;;;;;;11.01;57.93;101056.22;4989279;28;113837;-63
2022/02/15 09:19:41;;;;;;;14.82;6.35;;;;;;;11.02;58.10;101052.66;5005827;28;123244;-63
2022/02/15 09:22:09;;;;;;;13.98;6.03;;;;;;;11.04;57.92;101056.09;4988846;28;124807;-64
2022/02/15 09:24:37;;;;;;;13.05;5.85;;;;;;;11.04;57.86;101056.09;4992229;28;114126;-63
2022/02/15 09:27:05;;;;;;;14.80;5.80;;;;;;;11.08;57.90;101056.81;4989100;28;113867;-63
2022/02/15 09:29:33;;;;;;;15.18;5.95;;;;;;;11.09;57.80;101056.75;4989440;28;124242;-63
2022/02/15 09:32:00;;;;;;;11.63;5.15;;;;;;;11.10;57.64;101050.50;4988192;28;123635;-63
2022/02/15 09:34:27;;;;;;;11.43;5.07;;;;;;;11.13;57.96;101053.94;4989044;28;114750;-63
2022/02/15 09:36:55;;;;;;;13.98;5.20;;;;;;;11.16;57.69;101056.47;4989935;28;114042;-63
2022/02/15 09:39:23;;;;;;;9.65;4.80;;;;;;;11.19;58.03;101059.84;4990584;28;123005;-64
2022/02/15 09:41:52;;;;;;;13.30;5.32;;;;;;;11.25;57.80;101064.03;4987995;28;123983;-63
2022/02/15 09:44:19;;;;;;;11.73;4.80;;;;;;;11.31;57.71;101071.69;4990285;28;115657;-63
2022/02/15 09:46:46;;;;;;;10.45;5.03;;;;;;;11.35;57.70;101081.25;4990049;28;114070;-63
2022/02/15 09:52:01;;;;;;;10.52;4.18;;;;;;;11.45;57.25;101076.38;4988850;28;124019;-63
2022/02/15 09:54:29;;;;;;;9.05;3.92;;;;;;;11.50;57.38;101075.25;4988908;28;114321;-63
2022/02/15 09:56:56;;;;;;;7.72;3.63;;;;;;;11.56;57.27;101075.91;4991009;28;113825;-63
2022/02/15 09:59:24;;;;;;;7.65;3.65;;;;;;;11.60;56.96;101074.81;4988290;28;124109;-63
2022/02/15 10:01:52;;;;;;;7.68;2.75;;;;;;;11.62;56.61;101080.91;4987828;28;124494;-63
2022/02/15 10:04:34;;;;;;;6.50;2.65;;;;;;;11.60;56.16;101082.78;4990001;28;113320;-63
2022/02/15 10:07:03;;;;;;;6.85;2.30;;;;;;;11.58;56.36;101082.00;4989915;28;113390;-63
2022/02/15 10:09:31;;;;;;;8.65;2.97;;;;;;;11.57;55.96;101088.25;4989029;28;123814;-63
2022/02/15 10:12:07;;;;;;;7.78;3.13;;;;;;;11.57;56.36;101096.22;4990133;28;124176;-63
2022/02/15 10:14:39;;;;;;;8.45;3.28;;;;;;;11.60;56.01;101106.66;4988488;28;114175;-63
2022/02/15 10:17:13;;;;;;;8.98;3.38;;;;;;;11.63;56.14;101090.63;4988610;28;113939;-63
2022/02/15 10:19:42;;;;;;;9.98;2.85;;;;;;;11.68;55.77;101088.63;4989354;28;124739;-63
2022/02/15 10:22:11;;;;;;;5.60;2.40;;;;;;;11.74;55.86;101093.63;4990568;28;124078;-63
2022/02/15 10:24:39;;;;;;;7.05;2.10;;;;;;;11.80;55.64;101096.00;4991243;28;114092;-63
2022/02/15 10:27:09;;;;;;;6.15;2.00;;;;;;;11.87;55.49;101116.03;4988844;28;113860;-63
2022/02/15 10:29:38;;;;;;;7.18;2.50;;;;;;;11.94;55.45;101105.16;4989494;28;123823;-63
2022/02/15 10:32:09;;;;;;;5.45;2.72;;;;;;;11.98;55.28;101096.09;4989044;28;122841;-63
2022/02/15 10:34:57;;;;;;;4.85;2.72;;;;;;;12.04;54.99;101106.47;4990433;28;115141;-63
2022/02/15 10:37:27;;;;;;;9.70;3.47;;;;;;;12.10;55.04;101092.88;4988970;28;114822;-63
2022/02/15 10:39:57;;;;;;;7.30;3.40;;;;;;;12.15;55.13;101093.53;4987123;28;124213;-64
2022/02/15 10:42:27;;;;;;;8.70;3.90;;;;;;;12.22;54.88;101092.31;4988836;28;124228;-63
2022/02/15 10:45:06;;;;;;;8.63;4.15;;;;;;;12.29;54.76;101099.97;4988071;28;114344;-63
2022/02/15 10:47:44;;;;;;;9.20;4.50;;;;;;;12.37;54.88;101103.13;4988373;28;113725;-63
2022/02/15 10:50:13;;;;;;;8.77;4.05;;;;;;;12.47;54.75;101112.38;4987019;28;124712;-63
2022/02/15 10:52:42;;;;;;;7.88;3.28;;;;;;;12.54;54.11;101095.19;4988987;28;123778;-62
2022/02/15 10:55:11;;;;;;;6.20;3.50;;;;;;;12.58;54.13;101091.47;4986719;28;114353;-63
2022/02/15 10:57:40;;;;;;;5.32;3.35;;;;;;;12.62;53.70;101082.38;4989499;28;114419;-63
2022/02/15 11:00:10;;;;;;;9.18;3.65;;;;;;;12.63;53.33;101073.47;4990089;28;124711;-63
2022/02/15 11:02:40;;;;;;;7.70;3.40;;;;;;;12.63;53.22;101078.78;4992039;28;123945;-63
2022/02/15 11:05:11;;;;;;;8.30;3.80;;;;;;;12.62;52.90;101077.06;4991350;28;114615;-62
2022/02/15 11:08:01;;;;;;;7.30;4.18;;;;;;;12.60;52.97;101076.28;4993901;28;114285;-63
2022/02/15 11:10:40;;;;;;;8.20;4.38;;;;;;;12.60;52.88;101078.94;4990191;28;123867;-63
2022/02/15 11:13:07;;;;;;;8.15;4.20;;;;;;;12.64;52.87;101066.38;4991344;28;122931;-63
2022/02/15 11:15:38;;;;;;;6.43;3.83;;;;;;;12.66;52.80;101073.31;4992688;28;114374;-63
2022/02/15 11:18:07;;;;;;;7.20;4.32;;;;;;;12.65;52.59;101071.59;4993755;28;113784;-63
2022/02/15 11:20:56;;;;;;;9.95;5.05;;;;;;;12.60;52.44;101068.31;4992219;28;124719;-63
2022/02/15 11:23:37;;;;;;;6.53;4.70;;;;;;;12.61;52.68;101071.84;4991908;28;122893;-63
2022/02/15 11:26:17;;;;;;;5.57;3.60;;;;;;;12.62;52.67;101065.56;4992213;28;115209;-63
2022/02/15 11:28:49;;;;;;;5.28;3.42;;;;;;;12.65;52.17;101066.28;4993534;28;114788;-63
2022/02/15 11:31:26;;;;;;;7.18;2.92;;;;;;;12.68;52.22;101075.03;4991431;28;122934;-63
2022/02/15 11:33:56;;;;;;;7.82;3.13;;;;;;;12.70;52.19;101062.56;4993429;28;124007;-63
2022/02/15 11:36:24;;;;;;;6.00;2.97;;;;;;;12.74;52.14;101066.78;4990984;28;114581;-63